Forside
METAR-TAF:

METAR-TAF

Lufthavne :

Pago Pago, USA's ydre småøer

Breddekreds: 14-20S, længdekreds: 170-43W, højde: 3 m

Aktuelle vejr

Denne rapport blev lavet for 41 minutter siden, kl. 08:50 UTC
Vind 11 kt fra østsydøst
Temperatur 27°C
Fugtighed 79%
Tryk 1013 hPa
Sigt: 16.1 km
Spredte skyer i en højde af 2300 ft

METAR: NSTU 230850Z 12011KT 10SM SCT023 27/23 A2991 RMK SLP130 8/100 T02680228 52015

Tid: 22:31 (09:31 UTC)

Vejrudsigter

Denne rapport blev lavet for 4 timer og 1 minutter siden, kl. 05:30 UTC
Foreløbig gælder fra 23 på 06 UTC til 24 på 06 UTC
Vind 12 kt fra østsydøst
Sigt: 10 km
Nogle få skyer i en højde af 2000 ft
Spredte skyer i en højde af 3500 ft
Spredte skyer i en højde af 10000 ft
Fra 24 på 0300 UTC
Vind 9 kt fra øst
Sigt: 10 km
Nogle få skyer i en højde af 3500 ft
Spredte skyer i en højde af 10000 ft

TAF: NSTU 230530Z 2306/2406 11012KT P6SM FEW020 SCT035 SCT100 FM240300 08009KT P6SM FEW035 SCT100

Vejrobservationer og prognoser fra mere end 4000 lufthavne (METAR og TAF).

De gule og røde prikker repræsenterer de meteorologiske stationer.

Flyt musen over at se navnet på stationen.

Så klik over at se vejr observationer og prognoser.

At skifte det kort: Klik på de grønne knapper med et sort kors for at zoome ind; på den grønne knap med en bindestreg for at zoome ud; eller på de grønne pile for tilstødende kort.


METAR-TAF: